Andes — 5BFM3 — position and weather

sailwx.info

Track history (hours):
 
Tides and Currents Weather Stations Pressure Air Temp Water Temp Dewpoint Dewpoint Depression Visibility Wind Speed Wind Dir Waves Ship Positions

Andes

Last reported at 2016-Jun-27 13:33 UTC. Time now 2016-Jun-30 01:35 UTC.
Position N 38°03' W 122°05'.

Length 182 m; draft 7.3 m.

Type: Ship. MMSI: 209394000.

Date/timePositionNaut miles runAvg speedWind from/ knotsBaromVisibWave heightAir tempDewpointWater temp
2016-Jun-27 13:33N 38°03' W 122°05'3 3.1
2016-Jun-27 12:33N 38°02' W 122°09'1 0.5
2016-Jun-27 11:33N 38°02' W 122°08'4 4.4
2016-Jun-27 10:33N 38°04' W 122°14'1410.4
2016-Jun-27 09:12N 37°54' W 122°26'710.1
2016-Jun-27 08:33N 37°48' W 122°30'1111.2
2016-Jun-27 07:33N 37°43' W 122°43'7 6.9
2016-Jun-27 06:34N 37°39' W 122°50'7 6.7
2016-Jun-27 05:34N 37°35' W 122°57'7 7.0
2016-Jun-27 04:33N 37°31' W 123°04'9 8.8
2016-Jun-27 03:33N 37°25' W 123°11'1111.4
2016-Jun-27 02:34N 37°16' W 123°21'1111.2
2016-Jun-27 01:34N 37°08' W 123°30'1110.7
2016-Jun-27 00:33N 36°59' W 123°39'1111.0
2016-Jun-26 23:34N 36°51' W 123°47'7 7.2
2016-Jun-26 22:33N 36°46' W 123°54'1111.0
2016-Jun-26 21:34N 36°38' W 124°03'1110.7
2016-Jun-26 20:33N 36°30' W 124°12'1110.8
2016-Jun-26 19:34N 36°22' W 124°21'1010.2
2016-Jun-26 18:33N 36°14' W 124°30'10 9.8
2016-Jun-26 17:33N 36°07' W 124°38'1110.5
2016-Jun-26 16:34N 35°59' W 124°46'1010.5
2016-Jun-26 15:34N 35°51' W 124°55'1111.4
2016-Jun-26 14:33N 35°43' W 125°04'1211.9
2016-Jun-26 13:33N 35°34' W 125°14'1212.0
2016-Jun-26 12:33N 35°25' W 125°24'1212.1
2016-Jun-26 11:33N 35°16' W 125°34'1211.8
2016-Jun-26 10:33N 35°07' W 125°43'1211.6
2016-Jun-26 09:33N 34°58' W 125°53'1211.5
2016-Jun-26 08:33N 34°50' W 126°02'1111.5
2016-Jun-26 07:33N 34°42' W 126°12'1111.2
2016-Jun-26 06:33N 34°33' W 126°21'32 1.1
2016-Jun-25 01:17N 34°59' W 125°57'2 2.3
2016-Jun-25 00:15N 35°01' W 125°59'2 2.2
2016-Jun-24 23:33N 35°02' W 126°01'2 2.0
2016-Jun-24 22:32N 35°03' W 126°03'2 2.0
2016-Jun-24 21:29N 35°04' W 126°05'2 2.0
2016-Jun-24 20:27N 35°06' W 126°06'2 2.0
2016-Jun-24 19:23N 35°07' W 126°08'8 1.8
2016-Jun-24 15:14N 35°13' W 126°15'1 2.0
2016-Jun-24 14:28N 35°14' W 126°16'2 2.1
2016-Jun-24 13:30N 35°15' W 126°17'2 2.1
2016-Jun-24 12:33N 35°17' W 126°19'2 2.2
2016-Jun-24 11:33N 35°18' W 126°21'2 1.9
2016-Jun-24 10:26N 35°20' W 126°23'13 1.8
2016-Jun-24 03:13N 35°27' W 126°36'2 2.1
2016-Jun-24 02:28N 35°28' W 126°37'2 2.1
2016-Jun-24 01:33N 35°29' W 126°39'14 7.2
2016-Jun-23 23:33N 35°15' W 126°42'1110.3
2016-Jun-23 22:31N 35°05' W 126°43'1110.2
2016-Jun-23 21:25N 34°54' W 126°45'910.2
2016-Jun-23 20:33N 34°45' W 126°45'1010.2
2016-Jun-23 19:33N 34°34' W 126°46'1010.1
2016-Jun-23 18:33N 34°24' W 126°46'1010.0
2016-Jun-23 17:33N 34°14' W 126°46'10 9.8
2016-Jun-23 16:33N 34°05' W 126°46'10 9.8
2016-Jun-23 15:33N 33°55' W 126°45'3 3.0
2016-Jun-23 14:33N 33°52' W 126°45'2 1.7
2016-Jun-23 13:33N 33°54' W 126°46'2 1.7
2016-Jun-23 12:33N 33°55' W 126°46'2 2.0
2016-Jun-23 11:33N 33°57' W 126°46'2 2.1
2016-Jun-23 10:31N 33°59' W 126°47'2 2.2
2016-Jun-23 09:29N 34°02' W 126°47'2 2.2
2016-Jun-23 08:33N 34°04' W 126°48'3 1.9
2016-Jun-23 07:04N 34°06' W 126°49'3 1.8
2016-Jun-23 05:33N 34°09' W 126°51'2 1.8
2016-Jun-23 04:29N 34°11' W 126°51'2 1.7
2016-Jun-23 03:33N 34°12' W 126°52'2 1.8
2016-Jun-23 02:33N 34°14' W 126°53'2 1.9
2016-Jun-23 01:20N 34°16' W 126°54'2 1.9
2016-Jun-23 00:27N 34°18' W 126°54'2 1.9
2016-Jun-22 23:33N 34°19' W 126°56'2 1.7
2016-Jun-22 22:33N 34°21' W 126°57'2 1.7
2016-Jun-22 21:33N 34°22' W 126°57'2 1.7
2016-Jun-22 20:33N 34°24' W 126°58'2 1.9
2016-Jun-22 19:33N 34°26' W 126°59'2 1.8
2016-Jun-22 18:33N 34°27' W 126°59'2 2.0
2016-Jun-22 17:33N 34°29' W 127°00'2 2.1
2016-Jun-22 16:33N 34°31' W 127°01'2 2.2
2016-Jun-22 15:25N 34°33' W 127°02'2 2.2
2016-Jun-22 14:33N 34°35' W 127°03'2 2.3
2016-Jun-22 13:33N 34°37' W 127°04'2 2.3
2016-Jun-22 12:33N 34°40' W 127°05'3 2.3
2016-Jun-22 11:26N 34°42' W 127°06'2 2.3
2016-Jun-22 10:33N 34°44' W 127°07'2 2.3
2016-Jun-22 09:33N 34°46' W 127°09'2 2.2
2016-Jun-22 08:33N 34°48' W 127°10'2 2.1
2016-Jun-22 07:33N 34°49' W 127°11'2 2.0
2016-Jun-22 06:32N 34°51' W 127°12'2 1.8
2016-Jun-22 05:33N 34°53' W 127°13'2 1.8
2016-Jun-22 04:33N 34°54' W 127°14'2 1.8
2016-Jun-22 03:33N 34°56' W 127°15'2 1.8
2016-Jun-22 02:29N 34°58' W 127°16'2 2.0
2016-Jun-22 01:32N 34°59' W 127°17'2 2.0
2016-Jun-22 00:33N 35°01' W 127°18'2 2.1
2016-Jun-21 23:26N 35°03' W 127°19'3 1.6
2016-Jun-21 21:27N 35°06' W 127°17'2 2.2
2016-Jun-21 20:29N 35°07' W 127°15'2 2.1
2016-Jun-21 19:33N 35°08' W 127°13'2 2.2
2016-Jun-21 18:30N 35°10' W 127°10'2 2.2
2016-Jun-21 17:34N 35°11' W 127°08'2 2.3
2016-Jun-21 16:32N 35°13' W 127°06'2 2.1
2016-Jun-21 15:33N 35°14' W 127°04'2 2.1
2016-Jun-21 14:33N 35°15' W 127°03'5 2.1
2016-Jun-21 12:18N 35°19' W 126°59'1 1.9
2016-Jun-21 11:33N 35°20' W 126°57'7 2.1
2016-Jun-21 08:17N 35°25' W 126°52'1 2.0
2016-Jun-21 07:33N 35°26' W 126°50'4 1.4
2016-Jun-21 04:33N 35°27' W 126°46'9 9.2
2016-Jun-21 03:33N 35°19' W 126°51'9 9.1
2016-Jun-21 02:33N 35°11' W 126°57'12 9.5
2016-Jun-21 01:15N 35°01' W 127°04'7 9.3
2016-Jun-21 00:32N 34°55' W 127°08'9 9.2
2016-Jun-20 23:33N 34°47' W 127°13'1 0.8
2016-Jun-20 22:27N 34°47' W 127°12'3 2.2
2016-Jun-20 21:12N 34°48' W 127°10'4 2.2
2016-Jun-20 19:33N 34°51' W 127°06'2 2.0
2016-Jun-20 18:29N 34°52' W 127°04'2 2.0
2016-Jun-20 17:32N 34°53' W 127°03'2 2.0
2016-Jun-20 16:33N 34°55' W 127°01'2 2.1
2016-Jun-20 15:32N 34°56' W 126°59'2 2.1
2016-Jun-20 14:34N 34°57' W 126°57'3 2.3
2016-Jun-20 13:21N 34°60' W 126°55'2 2.3
2016-Jun-20 12:25N 35°01' W 126°53'3 2.2
2016-Jun-20 11:05N 35°04' W 126°51'1 2.1
2016-Jun-20 10:32N 35°05' W 126°50'28 1.9
2016-Jun-19 19:23N 35°27' W 126°28'3 3.6
2016-Jun-19 18:33N 35°25' W 126°25'1111.6
2016-Jun-19 17:33N 35°16' W 126°16'2611.9
2016-Jun-19 15:20N 34°56' W 125°54'6012.2
2016-Jun-19 10:24N 34°07' W 125°13'1012.4
2016-Jun-19 09:33N 33°58' W 125°06'1412.3
2016-Jun-19 08:26N 33°46' W 124°58'3512.1
2016-Jun-19 05:33N 33°16' W 124°36'1211.6
2016-Jun-19 04:33N 33°07' W 124°28'1211.9
2016-Jun-19 03:33N 32°56' W 124°21'30510.9
2016-Jun-17 23:32N 31°02' W 118°48'5112.9
2016-Jun-17 19:33N 31°34' W 118°00'4013.4
2016-Jun-17 16:31N 32°03' W 117°27'1413.4
2016-Jun-17 15:30N 32°12' W 117°15'1112.0
2016-Jun-17 14:33N 32°21' W 117°06'  
Track history (hours):
 
Tides and Currents Weather Stations Pressure Air Temp Water Temp Dewpoint Dewpoint Depression Visibility Wind Speed Wind Dir Waves Ship Positions

Andes

Last reported at 2016-Jun-27 13:33 UTC. Time now 2016-Jun-30 01:35 UTC.
Position N 38°03' W 122°05'.

Length 182 m; draft 7.3 m.

Type: Ship. MMSI: 209394000.

Date/timePositionNaut miles runAvg speedWind from/ knotsBaromVisibWave heightAir tempDewpointWater temp
2016-Jun-27 13:33N 38°03' W 122°05'3 3.1
2016-Jun-27 12:33N 38°02' W 122°09'1 0.5
2016-Jun-27 11:33N 38°02' W 122°08'4 4.4
2016-Jun-27 10:33N 38°04' W 122°14'1410.4
2016-Jun-27 09:12N 37°54' W 122°26'710.1
2016-Jun-27 08:33N 37°48' W 122°30'1111.2
2016-Jun-27 07:33N 37°43' W 122°43'7 6.9
2016-Jun-27 06:34N 37°39' W 122°50'7 6.7
2016-Jun-27 05:34N 37°35' W 122°57'7 7.0
2016-Jun-27 04:33N 37°31' W 123°04'9 8.8
2016-Jun-27 03:33N 37°25' W 123°11'1111.4
2016-Jun-27 02:34N 37°16' W 123°21'1111.2
2016-Jun-27 01:34N 37°08' W 123°30'1110.7
2016-Jun-27 00:33N 36°59' W 123°39'1111.0
2016-Jun-26 23:34N 36°51' W 123°47'7 7.2
2016-Jun-26 22:33N 36°46' W 123°54'1111.0
2016-Jun-26 21:34N 36°38' W 124°03'1110.7
2016-Jun-26 20:33N 36°30' W 124°12'1110.8
2016-Jun-26 19:34N 36°22' W 124°21'1010.2
2016-Jun-26 18:33N 36°14' W 124°30'10 9.8
2016-Jun-26 17:33N 36°07' W 124°38'1110.5
2016-Jun-26 16:34N 35°59' W 124°46'1010.5
2016-Jun-26 15:34N 35°51' W 124°55'1111.4
2016-Jun-26 14:33N 35°43' W 125°04'1211.9
2016-Jun-26 13:33N 35°34' W 125°14'1212.0
2016-Jun-26 12:33N 35°25' W 125°24'1212.1
2016-Jun-26 11:33N 35°16' W 125°34'1211.8
2016-Jun-26 10:33N 35°07' W 125°43'1211.6
2016-Jun-26 09:33N 34°58' W 125°53'1211.5
2016-Jun-26 08:33N 34°50' W 126°02'1111.5
2016-Jun-26 07:33N 34°42' W 126°12'1111.2
2016-Jun-26 06:33N 34°33' W 126°21'32 1.1
2016-Jun-25 01:17N 34°59' W 125°57'2 2.3
2016-Jun-25 00:15N 35°01' W 125°59'2 2.2
2016-Jun-24 23:33N 35°02' W 126°01'2 2.0
2016-Jun-24 22:32N 35°03' W 126°03'2 2.0
2016-Jun-24 21:29N 35°04' W 126°05'2 2.0
2016-Jun-24 20:27N 35°06' W 126°06'2 2.0
2016-Jun-24 19:23N 35°07' W 126°08'8 1.8
2016-Jun-24 15:14N 35°13' W 126°15'1 2.0
2016-Jun-24 14:28N 35°14' W 126°16'2 2.1
2016-Jun-24 13:30N 35°15' W 126°17'2 2.1
2016-Jun-24 12:33N 35°17' W 126°19'2 2.2
2016-Jun-24 11:33N 35°18' W 126°21'2 1.9
2016-Jun-24 10:26N 35°20' W 126°23'13 1.8
2016-Jun-24 03:13N 35°27' W 126°36'2 2.1
2016-Jun-24 02:28N 35°28' W 126°37'2 2.1
2016-Jun-24 01:33N 35°29' W 126°39'14 7.2
2016-Jun-23 23:33N 35°15' W 126°42'1110.3
2016-Jun-23 22:31N 35°05' W 126°43'1110.2
2016-Jun-23 21:25N 34°54' W 126°45'910.2
2016-Jun-23 20:33N 34°45' W 126°45'1010.2
2016-Jun-23 19:33N 34°34' W 126°46'1010.1
2016-Jun-23 18:33N 34°24' W 126°46'1010.0
2016-Jun-23 17:33N 34°14' W 126°46'10 9.8
2016-Jun-23 16:33N 34°05' W 126°46'10 9.8
2016-Jun-23 15:33N 33°55' W 126°45'3 3.0
2016-Jun-23 14:33N 33°52' W 126°45'2 1.7
2016-Jun-23 13:33N 33°54' W 126°46'2 1.7
2016-Jun-23 12:33N 33°55' W 126°46'2 2.0
2016-Jun-23 11:33N 33°57' W 126°46'2 2.1
2016-Jun-23 10:31N 33°59' W 126°47'2 2.2
2016-Jun-23 09:29N 34°02' W 126°47'2 2.2
2016-Jun-23 08:33N 34°04' W 126°48'3 1.9
2016-Jun-23 07:04N 34°06' W 126°49'3 1.8
2016-Jun-23 05:33N 34°09' W 126°51'2 1.8
2016-Jun-23 04:29N 34°11' W 126°51'2 1.7
2016-Jun-23 03:33N 34°12' W 126°52'2 1.8
2016-Jun-23 02:33N 34°14' W 126°53'2 1.9
2016-Jun-23 01:20N 34°16' W 126°54'2 1.9
2016-Jun-23 00:27N 34°18' W 126°54'2 1.9
2016-Jun-22 23:33N 34°19' W 126°56'2 1.7
2016-Jun-22 22:33N 34°21' W 126°57'2 1.7
2016-Jun-22 21:33N 34°22' W 126°57'2 1.7
2016-Jun-22 20:33N 34°24' W 126°58'2 1.9
2016-Jun-22 19:33N 34°26' W 126°59'2 1.8
2016-Jun-22 18:33N 34°27' W 126°59'2 2.0
2016-Jun-22 17:33N 34°29' W 127°00'2 2.1
2016-Jun-22 16:33N 34°31' W 127°01'2 2.2
2016-Jun-22 15:25N 34°33' W 127°02'2 2.2
2016-Jun-22 14:33N 34°35' W 127°03'2 2.3
2016-Jun-22 13:33N 34°37' W 127°04'2 2.3
2016-Jun-22 12:33N 34°40' W 127°05'3 2.3
2016-Jun-22 11:26N 34°42' W 127°06'2 2.3
2016-Jun-22 10:33N 34°44' W 127°07'2 2.3
2016-Jun-22 09:33N 34°46' W 127°09'2 2.2
2016-Jun-22 08:33N 34°48' W 127°10'2 2.1
2016-Jun-22 07:33N 34°49' W 127°11'2 2.0
2016-Jun-22 06:32N 34°51' W 127°12'2 1.8
2016-Jun-22 05:33N 34°53' W 127°13'2 1.8
2016-Jun-22 04:33N 34°54' W 127°14'2 1.8
2016-Jun-22 03:33N 34°56' W 127°15'2 1.8
2016-Jun-22 02:29N 34°58' W 127°16'2 2.0
2016-Jun-22 01:32N 34°59' W 127°17'2 2.0
2016-Jun-22 00:33N 35°01' W 127°18'2 2.1
2016-Jun-21 23:26N 35°03' W 127°19'3 1.6
2016-Jun-21 21:27N 35°06' W 127°17'2 2.2
2016-Jun-21 20:29N 35°07' W 127°15'2 2.1
2016-Jun-21 19:33N 35°08' W 127°13'2 2.2
2016-Jun-21 18:30N 35°10' W 127°10'2 2.2
2016-Jun-21 17:34N 35°11' W 127°08'2 2.3
2016-Jun-21 16:32N 35°13' W 127°06'2 2.1
2016-Jun-21 15:33N 35°14' W 127°04'2 2.1
2016-Jun-21 14:33N 35°15' W 127°03'5 2.1
2016-Jun-21 12:18N 35°19' W 126°59'1 1.9
2016-Jun-21 11:33N 35°20' W 126°57'7 2.1
2016-Jun-21 08:17N 35°25' W 126°52'1 2.0
2016-Jun-21 07:33N 35°26' W 126°50'4 1.4
2016-Jun-21 04:33N 35°27' W 126°46'9 9.2
2016-Jun-21 03:33N 35°19' W 126°51'9 9.1
2016-Jun-21 02:33N 35°11' W 126°57'12 9.5
2016-Jun-21 01:15N 35°01' W 127°04'7 9.3
2016-Jun-21 00:32N 34°55' W 127°08'9 9.2
2016-Jun-20 23:33N 34°47' W 127°13'1 0.8
2016-Jun-20 22:27N 34°47' W 127°12'3 2.2
2016-Jun-20 21:12N 34°48' W 127°10'4 2.2
2016-Jun-20 19:33N 34°51' W 127°06'2 2.0
2016-Jun-20 18:29N 34°52' W 127°04'2 2.0
2016-Jun-20 17:32N 34°53' W 127°03'2 2.0
2016-Jun-20 16:33N 34°55' W 127°01'2 2.1
2016-Jun-20 15:32N 34°56' W 126°59'2 2.1
2016-Jun-20 14:34N 34°57' W 126°57'3 2.3
2016-Jun-20 13:21N 34°60' W 126°55'2 2.3
2016-Jun-20 12:25N 35°01' W 126°53'3 2.2
2016-Jun-20 11:05N 35°04' W 126°51'1 2.1
2016-Jun-20 10:32N 35°05' W 126°50'28 1.9
2016-Jun-19 19:23N 35°27' W 126°28'3 3.6
2016-Jun-19 18:33N 35°25' W 126°25'1111.6
2016-Jun-19 17:33N 35°16' W 126°16'2611.9
2016-Jun-19 15:20N 34°56' W 125°54'6012.2
2016-Jun-19 10:24N 34°07' W 125°13'1012.4
2016-Jun-19 09:33N 33°58' W 125°06'1412.3
2016-Jun-19 08:26N 33°46' W 124°58'3512.1
2016-Jun-19 05:33N 33°16' W 124°36'1211.6
2016-Jun-19 04:33N 33°07' W 124°28'1211.9
2016-Jun-19 03:33N 32°56' W 124°21'30510.9
2016-Jun-17 23:32N 31°02' W 118°48'5112.9
2016-Jun-17 19:33N 31°34' W 118°00'4013.4
2016-Jun-17 16:31N 32°03' W 117°27'1413.4
2016-Jun-17 15:30N 32°12' W 117°15'1112.0
2016-Jun-17 14:33N 32°21' W 117°06'  

Dump ship's entire track history